sensor_id;sensor_type;location;lat;lon;timestamp;P1;durP1;ratioP1;P2;durP2;ratioP2
41480;SDS011;27217;51.220;5.308;2023-04-06T04:59:13;30.15;;;12.90;;
41480;SDS011;27217;51.220;5.308;2023-04-06T05:02:18;35.33;;;13.75;;
41480;SDS011;27217;51.220;5.308;2023-04-06T05:05:24;30.25;;;13.20;;
41480;SDS011;27217;51.220;5.308;2023-04-06T05:08:30;30.05;;;13.57;;
41480;SDS011;27217;51.220;5.308;2023-04-06T05:11:35;27.88;;;12.60;;
41480;SDS011;27217;51.220;5.308;2023-04-06T05:14:41;32.25;;;12.88;;
41480;SDS011;27217;51.220;5.308;2023-04-06T05:17:46;28.15;;;13.25;;
41480;SDS011;27217;51.220;5.308;2023-04-06T05:20:52;26.60;;;12.90;;
41480;SDS011;27217;51.220;5.308;2023-04-06T05:23:57;24.88;;;12.23;;
41480;SDS011;27217;51.220;5.308;2023-04-06T05:27:05;32.35;;;14.15;;
41480;SDS011;27217;51.220;5.308;2023-04-06T05:30:10;32.05;;;14.38;;
41480;SDS011;27217;51.220;5.308;2023-04-06T05:33:16;26.65;;;12.75;;
41480;SDS011;27217;51.220;5.308;2023-04-06T05:36:21;31.17;;;12.82;;
41480;SDS011;27217;51.220;5.308;2023-04-06T05:39:27;27.30;;;12.65;;
41480;SDS011;27217;51.220;5.308;2023-04-06T05:45:23;27.17;;;13.07;;
41480;SDS011;27217;51.220;5.308;2023-04-06T05:48:28;26.25;;;12.32;;
41480;SDS011;27217;51.220;5.308;2023-04-06T05:51:34;26.38;;;12.23;;
41480;SDS011;27217;51.220;5.308;2023-04-06T05:54:39;29.20;;;12.95;;
41480;SDS011;27217;51.220;5.308;2023-04-06T05:57:45;31.45;;;12.25;;
41480;SDS011;27217;51.220;5.308;2023-04-06T06:00:55;26.23;;;12.65;;
41480;SDS011;27217;51.220;5.308;2023-04-06T06:03:56;24.08;;;12.48;;
41480;SDS011;27217;51.220;5.308;2023-04-06T06:07:02;22.85;;;11.65;;
41480;SDS011;27217;51.220;5.308;2023-04-06T06:10:08;29.90;;;13.93;;
41480;SDS011;27217;51.220;5.308;2023-04-06T06:13:13;22.52;;;11.60;;
41480;SDS011;27217;51.220;5.308;2023-04-06T06:16:19;28.13;;;12.40;;
41480;SDS011;27217;51.220;5.308;2023-04-06T06:19:25;21.80;;;11.25;;
41480;SDS011;27217;51.220;5.308;2023-04-06T06:22:31;27.98;;;12.68;;
41480;SDS011;27217;51.220;5.308;2023-04-06T06:25:36;31.00;;;12.10;;
41480;SDS011;27217;51.220;5.308;2023-04-06T06:28:42;27.50;;;11.60;;
41480;SDS011;27217;51.220;5.308;2023-04-06T06:31:48;22.83;;;11.50;;
41480;SDS011;27217;51.220;5.308;2023-04-06T06:34:54;23.33;;;11.25;;
41480;SDS011;27217;51.220;5.308;2023-04-06T06:38:00;26.95;;;12.23;;
41480;SDS011;27217;51.220;5.308;2023-04-06T06:41:05;24.13;;;12.05;;
41480;SDS011;27217;51.220;5.308;2023-04-06T06:44:14;33.72;;;12.60;;
41480;SDS011;27217;51.220;5.308;2023-04-06T06:47:20;23.67;;;11.32;;
41480;SDS011;27217;51.220;5.308;2023-04-06T06:50:25;29.77;;;12.25;;
41480;SDS011;27217;51.220;5.308;2023-04-06T06:53:31;26.40;;;12.45;;
41480;SDS011;27217;51.220;5.308;2023-04-06T06:56:36;27.58;;;12.65;;
41480;SDS011;27217;51.220;5.308;2023-04-06T06:59:42;26.80;;;11.90;;
41480;SDS011;27217;51.220;5.308;2023-04-06T07:02:47;22.13;;;11.35;;
41480;SDS011;27217;51.220;5.308;2023-04-06T07:05:53;23.02;;;11.65;;
41480;SDS011;27217;51.220;5.308;2023-04-06T07:08:59;26.88;;;11.23;;
41480;SDS011;27217;51.220;5.308;2023-04-06T07:12:05;22.98;;;11.52;;
41480;SDS011;27217;51.220;5.308;2023-04-06T07:15:11;23.85;;;12.45;;
41480;SDS011;27217;51.220;5.308;2023-04-06T07:18:17;27.40;;;11.73;;
41480;SDS011;27217;51.220;5.308;2023-04-06T07:21:22;23.55;;;11.45;;
41480;SDS011;27217;51.220;5.308;2023-04-06T07:24:28;22.67;;;11.00;;
41480;SDS011;27217;51.220;5.308;2023-04-06T07:27:33;26.42;;;12.20;;
41480;SDS011;27217;51.220;5.308;2023-04-06T07:30:39;21.40;;;11.02;;
41480;SDS011;27217;51.220;5.308;2023-04-06T07:33:45;34.63;;;12.05;;
41480;SDS011;27217;51.220;5.308;2023-04-06T07:36:50;28.25;;;12.10;;
41480;SDS011;27217;51.220;5.308;2023-04-06T07:39:56;20.73;;;11.18;;
41480;SDS011;27217;51.220;5.308;2023-04-06T07:43:02;25.40;;;11.75;;
41480;SDS011;27217;51.220;5.308;2023-04-06T07:46:07;26.35;;;11.73;;
41480;SDS011;27217;51.220;5.308;2023-04-06T07:49:13;26.90;;;12.18;;
41480;SDS011;27217;51.220;5.308;2023-04-06T07:52:18;30.02;;;12.50;;
41480;SDS011;27217;51.220;5.308;2023-04-06T07:55:25;27.30;;;12.10;;
41480;SDS011;27217;51.220;5.308;2023-04-06T07:58:31;25.40;;;11.93;;
41480;SDS011;27217;51.220;5.308;2023-04-06T08:01:38;34.03;;;11.57;;
41480;SDS011;27217;51.220;5.308;2023-04-06T08:04:44;24.30;;;10.93;;
41480;SDS011;27217;51.220;5.308;2023-04-06T08:07:50;26.13;;;12.05;;
41480;SDS011;27217;51.220;5.308;2023-04-06T08:10:55;26.40;;;12.55;;
41480;SDS011;27217;51.220;5.308;2023-04-06T08:14:01;26.45;;;12.40;;
41480;SDS011;27217;51.220;5.308;2023-04-06T08:17:07;27.83;;;12.45;;
41480;SDS011;27217;51.220;5.308;2023-04-06T08:20:13;28.52;;;13.55;;
41480;SDS011;27217;51.220;5.308;2023-04-06T08:23:18;38.28;;;12.82;;
41480;SDS011;27217;51.220;5.308;2023-04-06T08:26:24;28.17;;;12.02;;
41480;SDS011;27217;51.220;5.308;2023-04-06T08:29:30;25.50;;;11.57;;
41480;SDS011;27217;51.220;5.308;2023-04-06T08:32:36;31.75;;;11.77;;
41480;SDS011;27217;51.220;5.308;2023-04-06T08:35:42;28.30;;;12.38;;
41480;SDS011;27217;51.220;5.308;2023-04-06T08:38:54;28.65;;;11.88;;
41480;SDS011;27217;51.220;5.308;2023-04-06T08:42:00;26.88;;;12.38;;
41480;SDS011;27217;51.220;5.308;2023-04-06T08:45:08;26.65;;;13.10;;
41480;SDS011;27217;51.220;5.308;2023-04-06T08:48:13;24.92;;;11.27;;
41480;SDS011;27217;51.220;5.308;2023-04-06T08:51:19;23.13;;;12.27;;
41480;SDS011;27217;51.220;5.308;2023-04-06T08:54:25;31.63;;;13.00;;
41480;SDS011;27217;51.220;5.308;2023-04-06T08:57:31;27.23;;;12.35;;
41480;SDS011;27217;51.220;5.308;2023-04-06T09:00:37;31.60;;;12.07;;
41480;SDS011;27217;51.220;5.308;2023-04-06T09:03:42;23.10;;;10.55;;
41480;SDS011;27217;51.220;5.308;2023-04-06T09:06:47;27.88;;;11.70;;
41480;SDS011;27217;51.220;5.308;2023-04-06T09:09:54;20.58;;;10.88;;
41480;SDS011;27217;51.220;5.308;2023-04-06T09:13:06;31.60;;;12.75;;
41480;SDS011;27217;51.220;5.308;2023-04-06T09:16:12;19.80;;;10.55;;
41480;SDS011;27217;51.220;5.308;2023-04-06T09:19:17;21.23;;;11.00;;
41480;SDS011;27217;51.220;5.308;2023-04-06T09:22:38;21.10;;;10.00;;
41480;SDS011;27217;51.220;5.308;2023-04-06T09:25:41;18.75;;;10.40;;
41480;SDS011;27217;51.220;5.308;2023-04-06T09:28:53;25.48;;;9.93;;
41480;SDS011;27217;51.220;5.308;2023-04-06T09:32:08;22.00;;;10.43;;
41480;SDS011;27217;51.220;5.308;2023-04-06T09:35:14;23.50;;;11.18;;
41480;SDS011;27217;51.220;5.308;2023-04-06T09:38:20;24.80;;;10.32;;
41480;SDS011;27217;51.220;5.308;2023-04-06T09:41:37;24.55;;;11.10;;
41480;SDS011;27217;51.220;5.308;2023-04-06T09:44:43;23.05;;;10.43;;
41480;SDS011;27217;51.220;5.308;2023-04-06T09:47:49;19.90;;;11.20;;
41480;SDS011;27217;51.220;5.308;2023-04-06T09:50:56;21.15;;;10.52;;
41480;SDS011;27217;51.220;5.308;2023-04-06T09:54:00;17.98;;;9.63;;
41480;SDS011;27217;51.220;5.308;2023-04-06T09:57:21;19.67;;;8.85;;
41480;SDS011;27217;51.220;5.308;2023-04-06T10:00:07;13.05;;;7.72;;
41480;SDS011;27217;51.220;5.308;2023-04-06T10:06:17;11.85;;;6.68;;
41480;SDS011;27217;51.220;5.308;2023-04-06T10:09:23;14.90;;;6.93;;
41480;SDS011;27217;51.220;5.308;2023-04-06T10:12:27;11.93;;;5.88;;
41480;SDS011;27217;51.220;5.308;2023-04-06T10:15:33;11.43;;;5.93;;
41480;SDS011;27217;51.220;5.308;2023-04-06T10:18:39;11.95;;;5.93;;
41480;SDS011;27217;51.220;5.308;2023-04-06T10:21:46;12.73;;;5.82;;
41480;SDS011;27217;51.220;5.308;2023-04-06T10:24:51;12.70;;;5.50;;
41480;SDS011;27217;51.220;5.308;2023-04-06T10:30:26;11.18;;;6.45;;
41480;SDS011;27217;51.220;5.308;2023-04-06T10:33:31;12.30;;;7.13;;
41480;SDS011;27217;51.220;5.308;2023-04-06T10:36:40;12.07;;;7.10;;
41480;SDS011;27217;51.220;5.308;2023-04-06T10:39:46;15.32;;;9.50;;
41480;SDS011;27217;51.220;5.308;2023-04-06T10:42:55;27.02;;;8.10;;
41480;SDS011;27217;51.220;5.308;2023-04-06T10:46:04;18.52;;;7.50;;
41480;SDS011;27217;51.220;5.308;2023-04-06T10:49:12;14.85;;;8.73;;
41480;SDS011;27217;51.220;5.308;2023-04-06T10:52:18;18.75;;;8.98;;
41480;SDS011;27217;51.220;5.308;2023-04-06T10:55:24;16.08;;;7.95;;
41480;SDS011;27217;51.220;5.308;2023-04-06T10:58:29;17.92;;;8.48;;
41480;SDS011;27217;51.220;5.308;2023-04-06T11:01:35;20.95;;;9.57;;
41480;SDS011;27217;51.220;5.308;2023-04-06T11:04:41;15.38;;;8.73;;
41480;SDS011;27217;51.220;5.308;2023-04-06T11:07:47;22.95;;;9.60;;
41480;SDS011;27217;51.220;5.308;2023-04-06T11:11:12;21.58;;;9.85;;
41480;SDS011;27217;51.220;5.308;2023-04-06T11:14:17;21.60;;;10.75;;
41480;SDS011;27217;51.220;5.308;2023-04-06T11:17:29;20.17;;;9.77;;
41480;SDS011;27217;51.220;5.308;2023-04-06T11:20:35;19.73;;;8.88;;
41480;SDS011;27217;51.220;5.308;2023-04-06T11:23:41;20.92;;;9.93;;
41480;SDS011;27217;51.220;5.308;2023-04-06T11:26:56;15.98;;;7.95;;
41480;SDS011;27217;51.220;5.308;2023-04-06T11:30:01;15.02;;;9.05;;
41480;SDS011;27217;51.220;5.308;2023-04-06T11:33:07;15.40;;;8.20;;
41480;SDS011;27217;51.220;5.308;2023-04-06T11:36:12;15.70;;;8.43;;
41480;SDS011;27217;51.220;5.308;2023-04-06T11:39:21;16.58;;;9.45;;
41480;SDS011;27217;51.220;5.308;2023-04-06T11:42:38;17.38;;;9.85;;
41480;SDS011;27217;51.220;5.308;2023-04-06T11:45:43;18.27;;;9.10;;
41480;SDS011;27217;51.220;5.308;2023-04-06T11:48:49;14.75;;;8.20;;
41480;SDS011;27217;51.220;5.308;2023-04-06T11:51:55;16.67;;;8.98;;
41480;SDS011;27217;51.220;5.308;2023-04-06T11:55:14;14.60;;;8.32;;
41480;SDS011;27217;51.220;5.308;2023-04-06T11:58:24;14.48;;;8.00;;
41480;SDS011;27217;51.220;5.308;2023-04-06T12:01:30;15.25;;;8.07;;
41480;SDS011;27217;51.220;5.308;2023-04-06T12:04:36;18.55;;;8.82;;
41480;SDS011;27217;51.220;5.308;2023-04-06T12:07:42;13.52;;;8.48;;
41480;SDS011;27217;51.220;5.308;2023-04-06T12:10:50;15.45;;;7.93;;
41480;SDS011;27217;51.220;5.308;2023-04-06T12:13:55;14.95;;;8.05;;
41480;SDS011;27217;51.220;5.308;2023-04-06T12:17:01;15.27;;;8.57;;
41480;SDS011;27217;51.220;5.308;2023-04-06T12:20:07;16.95;;;8.80;;
41480;SDS011;27217;51.220;5.308;2023-04-06T12:23:13;15.27;;;7.43;;
41480;SDS011;27217;51.220;5.308;2023-04-06T12:26:19;14.10;;;8.13;;
41480;SDS011;27217;51.220;5.308;2023-04-06T12:29:26;16.23;;;8.40;;
41480;SDS011;27217;51.220;5.308;2023-04-06T12:32:31;16.10;;;7.93;;
41480;SDS011;27217;51.220;5.308;2023-04-06T12:35:37;14.65;;;7.80;;
41480;SDS011;27217;51.220;5.308;2023-04-06T12:38:46;13.48;;;7.22;;
41480;SDS011;27217;51.220;5.308;2023-04-06T12:41:52;15.02;;;7.82;;
41480;SDS011;27217;51.220;5.308;2023-04-06T12:44:57;15.32;;;7.53;;
41480;SDS011;27217;51.220;5.308;2023-04-06T12:48:03;13.65;;;8.05;;
41480;SDS011;27217;51.220;5.308;2023-04-06T12:51:09;17.50;;;8.82;;
41480;SDS011;27217;51.220;5.308;2023-04-06T12:54:15;16.95;;;7.47;;
41480;SDS011;27217;51.220;5.308;2023-04-06T12:57:20;18.50;;;8.85;;
41480;SDS011;27217;51.220;5.308;2023-04-06T13:00:26;17.55;;;8.93;;
41480;SDS011;27217;51.220;5.308;2023-04-06T13:03:31;14.75;;;8.73;;
41480;SDS011;27217;51.220;5.308;2023-04-06T13:06:37;21.95;;;8.75;;
41480;SDS011;27217;51.220;5.308;2023-04-06T13:09:42;17.52;;;8.48;;
41480;SDS011;27217;51.220;5.308;2023-04-06T13:12:48;15.35;;;8.85;;
41480;SDS011;27217;51.220;5.308;2023-04-06T13:15:54;17.15;;;8.80;;
41480;SDS011;27217;51.220;5.308;2023-04-06T13:19:00;16.73;;;8.90;;
41480;SDS011;27217;51.220;5.308;2023-04-06T13:22:06;17.38;;;8.25;;
41480;SDS011;27217;51.220;5.308;2023-04-06T13:25:11;15.38;;;9.05;;
41480;SDS011;27217;51.220;5.308;2023-04-06T13:28:17;17.13;;;8.55;;
41480;SDS011;27217;51.220;5.308;2023-04-06T13:31:22;14.50;;;8.38;;
41480;SDS011;27217;51.220;5.308;2023-04-06T13:34:28;20.42;;;9.07;;
41480;SDS011;27217;51.220;5.308;2023-04-06T13:37:34;15.27;;;9.60;;
41480;SDS011;27217;51.220;5.308;2023-04-06T13:40:40;16.30;;;9.80;;
41480;SDS011;27217;51.220;5.308;2023-04-06T13:43:46;19.17;;;9.00;;
41480;SDS011;27217;51.220;5.308;2023-04-06T13:46:51;19.13;;;10.00;;
41480;SDS011;27217;51.220;5.308;2023-04-06T13:49:57;20.63;;;10.73;;
41480;SDS011;27217;51.220;5.308;2023-04-06T13:53:03;15.23;;;9.07;;
41480;SDS011;27217;51.220;5.308;2023-04-06T13:56:09;18.23;;;9.57;;
41480;SDS011;27217;51.220;5.308;2023-04-06T13:59:14;20.70;;;10.65;;
41480;SDS011;27217;51.220;5.308;2023-04-06T14:02:20;20.65;;;10.32;;
41480;SDS011;27217;51.220;5.308;2023-04-06T14:05:26;20.95;;;10.43;;
41480;SDS011;27217;51.220;5.308;2023-04-06T14:08:32;19.10;;;10.38;;
41480;SDS011;27217;51.220;5.308;2023-04-06T14:11:37;20.23;;;9.88;;
41480;SDS011;27217;51.220;5.308;2023-04-06T14:14:46;20.25;;;9.15;;
41480;SDS011;27217;51.220;5.308;2023-04-06T14:17:52;17.98;;;8.95;;
41480;SDS011;27217;51.220;5.308;2023-04-06T14:20:59;15.57;;;8.95;;
41480;SDS011;27217;51.220;5.308;2023-04-06T14:24:08;17.05;;;9.07;;
41480;SDS011;27217;51.220;5.308;2023-04-06T14:27:11;15.70;;;9.82;;
41480;SDS011;27217;51.220;5.308;2023-04-06T14:30:17;15.90;;;9.27;;
41480;SDS011;27217;51.220;5.308;2023-04-06T14:33:23;14.50;;;8.65;;
41480;SDS011;27217;51.220;5.308;2023-04-06T14:36:32;13.00;;;8.70;;
41480;SDS011;27217;51.220;5.308;2023-04-06T14:39:35;15.35;;;9.52;;
41480;SDS011;27217;51.220;5.308;2023-04-06T14:42:41;20.42;;;9.18;;
41480;SDS011;27217;51.220;5.308;2023-04-06T14:45:46;18.50;;;10.05;;
41480;SDS011;27217;51.220;5.308;2023-04-06T14:48:55;17.38;;;10.50;;
41480;SDS011;27217;51.220;5.308;2023-04-06T14:52:00;16.20;;;10.18;;
41480;SDS011;27217;51.220;5.308;2023-04-06T14:55:07;18.15;;;10.18;;
41480;SDS011;27217;51.220;5.308;2023-04-06T14:58:15;16.48;;;9.68;;
41480;SDS011;27217;51.220;5.308;2023-04-06T15:01:22;17.77;;;11.13;;
41480;SDS011;27217;51.220;5.308;2023-04-06T15:04:28;23.30;;;10.88;;
41480;SDS011;27217;51.220;5.308;2023-04-06T15:07:33;18.73;;;10.23;;
41480;SDS011;27217;51.220;5.308;2023-04-06T15:10:40;19.60;;;11.07;;
41480;SDS011;27217;51.220;5.308;2023-04-06T15:13:46;21.70;;;11.80;;
41480;SDS011;27217;51.220;5.308;2023-04-06T15:16:51;22.38;;;11.23;;
41480;SDS011;27217;51.220;5.308;2023-04-06T15:19:57;19.88;;;11.02;;
41480;SDS011;27217;51.220;5.308;2023-04-06T15:23:03;15.68;;;9.73;;
41480;SDS011;27217;51.220;5.308;2023-04-06T15:26:08;29.02;;;11.88;;
41480;SDS011;27217;51.220;5.308;2023-04-06T15:29:17;19.65;;;10.88;;
41480;SDS011;27217;51.220;5.308;2023-04-06T15:32:20;20.98;;;11.27;;
41480;SDS011;27217;51.220;5.308;2023-04-06T15:35:26;20.60;;;12.43;;
41480;SDS011;27217;51.220;5.308;2023-04-06T15:38:32;24.55;;;12.35;;
41480;SDS011;27217;51.220;5.308;2023-04-06T15:41:38;24.27;;;13.00;;
41480;SDS011;27217;51.220;5.308;2023-04-06T15:44:43;21.00;;;11.63;;
41480;SDS011;27217;51.220;5.308;2023-04-06T15:47:49;20.45;;;11.43;;
41480;SDS011;27217;51.220;5.308;2023-04-06T15:50:56;21.17;;;11.32;;
41480;SDS011;27217;51.220;5.308;2023-04-06T15:54:01;24.92;;;13.55;;
41480;SDS011;27217;51.220;5.308;2023-04-06T15:57:06;23.38;;;12.98;;
41480;SDS011;27217;51.220;5.308;2023-04-06T16:00:13;19.17;;;12.10;;
41480;SDS011;27217;51.220;5.308;2023-04-06T16:03:18;20.58;;;12.23;;
41480;SDS011;27217;51.220;5.308;2023-04-06T16:06:24;25.55;;;13.35;;
41480;SDS011;27217;51.220;5.308;2023-04-06T16:09:29;22.77;;;12.55;;
41480;SDS011;27217;51.220;5.308;2023-04-06T16:12:35;23.02;;;12.38;;
41480;SDS011;27217;51.220;5.308;2023-04-06T16:15:41;21.02;;;11.95;;
41480;SDS011;27217;51.220;5.308;2023-04-06T16:18:47;21.55;;;11.20;;
41480;SDS011;27217;51.220;5.308;2023-04-06T16:21:53;25.20;;;12.07;;
41480;SDS011;27217;51.220;5.308;2023-04-06T16:24:59;19.70;;;10.73;;
41480;SDS011;27217;51.220;5.308;2023-04-06T16:28:05;21.13;;;11.95;;
41480;SDS011;27217;51.220;5.308;2023-04-06T16:31:21;17.88;;;9.95;;
41480;SDS011;27217;51.220;5.308;2023-04-06T16:34:17;24.48;;;11.80;;
41480;SDS011;27217;51.220;5.308;2023-04-06T16:37:25;8.40;;;5.15;;
41480;SDS011;27217;51.220;5.308;2023-04-06T16:40:29;0.43;;;0.43;;
41480;SDS011;27217;51.220;5.308;2023-04-06T16:43:34;0.20;;;0.20;;
41480;SDS011;27217;51.220;5.308;2023-04-06T16:46:40;0.55;;;0.55;;
41480;SDS011;27217;51.220;5.308;2023-04-06T16:49:46;0.10;;;0.10;;
41480;SDS011;27217;51.220;5.308;2023-04-06T16:52:51;1.25;;;1.13;;
41480;SDS011;27217;51.220;5.308;2023-04-06T16:55:57;0.43;;;0.43;;
41480;SDS011;27217;51.220;5.308;2023-04-06T16:59:05;0.10;;;0.10;;
41480;SDS011;27217;51.220;5.308;2023-04-06T17:02:08;0.30;;;0.30;;
41480;SDS011;27217;51.220;5.308;2023-04-06T17:05:14;0.05;;;0.05;;
41480;SDS011;27217;51.220;5.308;2023-04-06T17:08:20;0.10;;;0.10;;
41480;SDS011;27217;51.220;5.308;2023-04-06T17:11:25;0.65;;;0.65;;
41480;SDS011;27217;51.220;5.308;2023-04-06T17:14:31;0.77;;;0.77;;
41480;SDS011;27217;51.220;5.308;2023-04-06T17:17:37;0.60;;;0.60;;
41480;SDS011;27217;51.220;5.308;2023-04-06T17:20:42;1.40;;;0.90;;
41480;SDS011;27217;51.220;5.308;2023-04-06T17:23:48;0.20;;;0.20;;
41480;SDS011;27217;51.220;5.308;2023-04-06T17:26:54;0.25;;;0.25;;
41480;SDS011;27217;51.220;5.308;2023-04-06T17:30:00;1.25;;;1.25;;
41480;SDS011;27217;51.220;5.308;2023-04-06T17:33:06;1.05;;;1.05;;
41480;SDS011;27217;51.220;5.308;2023-04-06T17:36:12;0.45;;;0.45;;
41480;SDS011;27217;51.220;5.308;2023-04-06T17:39:17;0.13;;;0.13;;
41480;SDS011;27217;51.220;5.308;2023-04-06T17:42:23;4.72;;;2.17;;
41480;SDS011;27217;51.220;5.308;2023-04-06T17:45:29;0.55;;;0.55;;
41480;SDS011;27217;51.220;5.308;2023-04-06T17:48:35;0.30;;;0.30;;
41480;SDS011;27217;51.220;5.308;2023-04-06T17:51:41;0.52;;;0.52;;
41480;SDS011;27217;51.220;5.308;2023-04-06T17:54:46;0.55;;;0.55;;
41480;SDS011;27217;51.220;5.308;2023-04-06T17:57:52;0.20;;;0.20;;
41480;SDS011;27217;51.220;5.308;2023-04-06T18:00:57;0.57;;;0.57;;
41480;SDS011;27217;51.220;5.308;2023-04-06T18:04:03;0.35;;;0.35;;
41480;SDS011;27217;51.220;5.308;2023-04-06T18:07:09;0.10;;;0.10;;
41480;SDS011;27217;51.220;5.308;2023-04-06T18:10:16;0.75;;;0.75;;
41480;SDS011;27217;51.220;5.308;2023-04-06T18:13:22;0.13;;;0.13;;
41480;SDS011;27217;51.220;5.308;2023-04-06T18:16:28;1.48;;;1.38;;
41480;SDS011;27217;51.220;5.308;2023-04-06T18:19:34;1.65;;;1.10;;
41480;SDS011;27217;51.220;5.308;2023-04-06T18:22:39;0.63;;;0.63;;
41480;SDS011;27217;51.220;5.308;2023-04-06T18:25:45;0.15;;;0.15;;
41480;SDS011;27217;51.220;5.308;2023-04-06T18:28:51;0.88;;;0.75;;
41480;SDS011;27217;51.220;5.308;2023-04-06T18:31:56;1.95;;;0.57;;
41480;SDS011;27217;51.220;5.308;2023-04-06T18:35:03;0.63;;;0.63;;
41480;SDS011;27217;51.220;5.308;2023-04-06T18:38:09;0.13;;;0.13;;
41480;SDS011;27217;51.220;5.308;2023-04-06T18:41:14;0.65;;;0.65;;
41480;SDS011;27217;51.220;5.308;2023-04-06T18:44:20;0.40;;;0.40;;
41480;SDS011;27217;51.220;5.308;2023-04-06T18:47:26;0.20;;;0.20;;
41480;SDS011;27217;51.220;5.308;2023-04-06T18:50:31;0.28;;;0.28;;
41480;SDS011;27217;51.220;5.308;2023-04-06T18:53:37;3.20;;;1.98;;
41480;SDS011;27217;51.220;5.308;2023-04-06T18:56:43;0.10;;;0.10;;
41480;SDS011;27217;51.220;5.308;2023-04-06T18:59:49;0.95;;;0.88;;
41480;SDS011;27217;51.220;5.308;2023-04-06T19:02:54;0.90;;;0.90;;
41480;SDS011;27217;51.220;5.308;2023-04-06T19:06:01;0.90;;;0.90;;
41480;SDS011;27217;51.220;5.308;2023-04-06T19:09:06;0.30;;;0.30;;
41480;SDS011;27217;51.220;5.308;2023-04-06T19:12:12;0.20;;;0.20;;
41480;SDS011;27217;51.220;5.308;2023-04-06T19:15:21;0.40;;;0.40;;
41480;SDS011;27217;51.220;5.308;2023-04-06T19:18:26;0.38;;;0.38;;
41480;SDS011;27217;51.220;5.308;2023-04-06T19:21:32;0.70;;;0.70;;
41480;SDS011;27217;51.220;5.308;2023-04-06T19:24:40;0.13;;;0.13;;
41480;SDS011;27217;51.220;5.308;2023-04-06T19:27:45;0.57;;;0.47;;
41480;SDS011;27217;51.220;5.308;2023-04-06T19:30:50;0.63;;;0.63;;
41480;SDS011;27217;51.220;5.308;2023-04-06T19:33:56;0.73;;;0.73;;
41480;SDS011;27217;51.220;5.308;2023-04-06T19:37:02;0.10;;;0.10;;
41480;SDS011;27217;51.220;5.308;2023-04-06T19:40:08;0.10;;;0.10;;
41480;SDS011;27217;51.220;5.308;2023-04-06T19:43:13;6.55;;;0.85;;
41480;SDS011;27217;51.220;5.308;2023-04-06T19:46:19;1.33;;;1.00;;
41480;SDS011;27217;51.220;5.308;2023-04-06T19:49:25;0.10;;;0.10;;
41480;SDS011;27217;51.220;5.308;2023-04-06T19:52:31;0.57;;;0.55;;
41480;SDS011;27217;51.220;5.308;2023-04-06T19:55:36;0.13;;;0.13;;
41480;SDS011;27217;51.220;5.308;2023-04-06T19:58:42;1.65;;;0.55;;
41480;SDS011;27217;51.220;5.308;2023-04-06T20:01:48;2.25;;;2.05;;
41480;SDS011;27217;51.220;5.308;2023-04-06T20:04:53;0.13;;;0.13;;
41480;SDS011;27217;51.220;5.308;2023-04-06T20:07:59;0.40;;;0.40;;
41480;SDS011;27217;51.220;5.308;2023-04-06T20:11:05;0.57;;;0.57;;
41480;SDS011;27217;51.220;5.308;2023-04-06T20:14:11;0.63;;;0.63;;
41480;SDS011;27217;51.220;5.308;2023-04-06T20:17:17;0.88;;;0.50;;
41480;SDS011;27217;51.220;5.308;2023-04-06T20:20:22;0.40;;;0.40;;
41480;SDS011;27217;51.220;5.308;2023-04-06T20:23:28;0.20;;;0.20;;
41480;SDS011;27217;51.220;5.308;2023-04-06T20:26:35;1.20;;;0.95;;
41480;SDS011;27217;51.220;5.308;2023-04-06T20:29:42;1.95;;;1.08;;
41480;SDS011;27217;51.220;5.308;2023-04-06T20:32:48;1.00;;;1.00;;
41480;SDS011;27217;51.220;5.308;2023-04-06T20:35:55;28.48;;;1.70;;
41480;SDS011;27217;51.220;5.308;2023-04-06T20:39:00;3.40;;;1.35;;
41480;SDS011;27217;51.220;5.308;2023-04-06T20:42:05;0.20;;;0.20;;
41480;SDS011;27217;51.220;5.308;2023-04-06T20:45:11;1.00;;;1.00;;
41480;SDS011;27217;51.220;5.308;2023-04-06T20:48:18;0.40;;;0.40;;
41480;SDS011;27217;51.220;5.308;2023-04-06T20:51:23;0.10;;;0.10;;
41480;SDS011;27217;51.220;5.308;2023-04-06T20:54:29;0.10;;;0.10;;
41480;SDS011;27217;51.220;5.308;2023-04-06T20:57:34;0.10;;;0.10;;
41480;SDS011;27217;51.220;5.308;2023-04-06T21:00:41;0.82;;;0.82;;
41480;SDS011;27217;51.220;5.308;2023-04-06T21:03:47;0.60;;;0.60;;
41480;SDS011;27217;51.220;5.308;2023-04-06T21:06:53;0.35;;;0.35;;
41480;SDS011;27217;51.220;5.308;2023-04-06T21:09:58;0.25;;;0.25;;
41480;SDS011;27217;51.220;5.308;2023-04-06T21:13:07;0.55;;;0.55;;
41480;SDS011;27217;51.220;5.308;2023-04-06T21:16:15;7.13;;;3.15;;
41480;SDS011;27217;51.220;5.308;2023-04-06T21:19:20;0.35;;;0.35;;
41480;SDS011;27217;51.220;5.308;2023-04-06T21:22:25;0.10;;;0.10;;
41480;SDS011;27217;51.220;5.308;2023-04-06T21:25:31;0.30;;;0.30;;
41480;SDS011;27217;51.220;5.308;2023-04-06T21:28:37;0.60;;;0.60;;
41480;SDS011;27217;51.220;5.308;2023-04-06T21:31:42;1.67;;;0.75;;
41480;SDS011;27217;51.220;5.308;2023-04-06T21:34:48;1.50;;;1.23;;
41480;SDS011;27217;51.220;5.308;2023-04-06T21:37:54;0.35;;;0.35;;
41480;SDS011;27217;51.220;5.308;2023-04-06T21:41:00;0.40;;;0.40;;
41480;SDS011;27217;51.220;5.308;2023-04-06T21:44:05;0.22;;;0.22;;
41480;SDS011;27217;51.220;5.308;2023-04-06T21:47:11;0.47;;;0.47;;
41480;SDS011;27217;51.220;5.308;2023-04-06T21:50:17;0.28;;;0.28;;
41480;SDS011;27217;51.220;5.308;2023-04-06T21:53:23;2.83;;;1.00;;
41480;SDS011;27217;51.220;5.308;2023-04-06T21:56:28;0.25;;;0.25;;
41480;SDS011;27217;51.220;5.308;2023-04-06T21:59:34;1.20;;;1.17;;
41480;SDS011;27217;51.220;5.308;2023-04-06T22:02:40;0.30;;;0.30;;
41480;SDS011;27217;51.220;5.308;2023-04-06T22:05:45;0.40;;;0.40;;
41480;SDS011;27217;51.220;5.308;2023-04-06T22:08:51;2.13;;;1.80;;
41480;SDS011;27217;51.220;5.308;2023-04-06T22:11:57;5.60;;;1.75;;
41480;SDS011;27217;51.220;5.308;2023-04-06T22:15:03;0.20;;;0.20;;
41480;SDS011;27217;51.220;5.308;2023-04-06T22:18:09;0.52;;;0.52;;
41480;SDS011;27217;51.220;5.308;2023-04-06T22:21:14;4.07;;;2.47;;
41480;SDS011;27217;51.220;5.308;2023-04-06T22:24:20;0.20;;;0.20;;
41480;SDS011;27217;51.220;5.308;2023-04-06T22:27:26;0.32;;;0.32;;
41480;SDS011;27217;51.220;5.308;2023-04-06T22:30:32;0.13;;;0.13;;
41480;SDS011;27217;51.220;5.308;2023-04-06T22:33:37;0.70;;;0.70;;
41480;SDS011;27217;51.220;5.308;2023-04-06T22:36:43;0.30;;;0.30;;
41480;SDS011;27217;51.220;5.308;2023-04-06T22:39:49;0.85;;;0.85;;
41480;SDS011;27217;51.220;5.308;2023-04-06T22:42:55;0.10;;;0.10;;
41480;SDS011;27217;51.220;5.308;2023-04-06T22:46:00;1.60;;;1.35;;
41480;SDS011;27217;51.220;5.308;2023-04-06T22:49:06;1.48;;;1.15;;
41480;SDS011;27217;51.220;5.308;2023-04-06T22:52:12;0.43;;;0.43;;
41480;SDS011;27217;51.220;5.308;2023-04-06T22:55:17;2.90;;;0.88;;
41480;SDS011;27217;51.220;5.308;2023-04-06T22:58:23;0.00;;;0.00;;
41480;SDS011;27217;51.220;5.308;2023-04-06T23:01:29;0.15;;;0.15;;
41480;SDS011;27217;51.220;5.308;2023-04-06T23:04:35;0.22;;;0.22;;
41480;SDS011;27217;51.220;5.308;2023-04-06T23:07:41;1.25;;;1.17;;
41480;SDS011;27217;51.220;5.308;2023-04-06T23:10:46;0.35;;;0.30;;
41480;SDS011;27217;51.220;5.308;2023-04-06T23:13:52;0.52;;;0.52;;
41480;SDS011;27217;51.220;5.308;2023-04-06T23:16:58;1.50;;;1.48;;
41480;SDS011;27217;51.220;5.308;2023-04-06T23:20:03;1.15;;;1.05;;
41480;SDS011;27217;51.220;5.308;2023-04-06T23:23:09;0.45;;;0.45;;
41480;SDS011;27217;51.220;5.308;2023-04-06T23:26:14;3.08;;;2.85;;
41480;SDS011;27217;51.220;5.308;2023-04-06T23:29:20;0.82;;;0.35;;